sensor_id;sensor_type;location;lat;lon;timestamp;temperature;humidity
17956;DHT22;27666;51.498;11.966;2023-07-29T14:01:01;27.40;99.90
17956;DHT22;27666;51.498;11.966;2023-07-29T14:03:49;27.30;99.90
17956;DHT22;27666;51.498;11.966;2023-07-29T14:06:35;27.20;99.90
17956;DHT22;27666;51.498;11.966;2023-07-29T14:09:31;27.10;99.90
17956;DHT22;27666;51.498;11.966;2023-07-29T14:12:17;27.00;99.90
17956;DHT22;27666;51.498;11.966;2023-07-29T14:15:05;26.90;99.90
17956;DHT22;27666;51.498;11.966;2023-07-29T14:17:53;26.80;99.90
17956;DHT22;27666;51.498;11.966;2023-07-29T14:20:40;26.70;99.90
17956;DHT22;27666;51.498;11.966;2023-07-29T14:23:27;26.60;99.90
17956;DHT22;27666;51.498;11.966;2023-07-29T14:26:15;26.10;99.90
17956;DHT22;27666;51.498;11.966;2023-07-29T14:31:49;24.20;99.90
17956;DHT22;27666;51.498;11.966;2023-07-29T14:34:39;23.40;99.90
17956;DHT22;27666;51.498;11.966;2023-07-29T14:37:26;22.70;99.90
17956;DHT22;27666;51.498;11.966;2023-07-29T14:40:12;22.30;99.90
17956;DHT22;27666;51.498;11.966;2023-07-29T14:42:59;22.10;99.90
17956;DHT22;27666;51.498;11.966;2023-07-29T14:45:45;22.00;99.90
17956;DHT22;27666;51.498;11.966;2023-07-29T14:48:32;22.00;99.90
17956;DHT22;27666;51.498;11.966;2023-07-29T14:51:20;21.90;99.90
17956;DHT22;27666;51.498;11.966;2023-07-29T14:54:08;21.80;99.90
17956;DHT22;27666;51.498;11.966;2023-07-29T14:56:55;21.80;99.90
17956;DHT22;27666;51.498;11.966;2023-07-29T14:59:41;21.80;99.90
17956;DHT22;27666;51.498;11.966;2023-07-29T15:02:27;21.70;99.90
17956;DHT22;27666;51.498;11.966;2023-07-29T15:05:15;21.70;99.90
17956;DHT22;27666;51.498;11.966;2023-07-29T15:08:03;21.70;99.90
17956;DHT22;27666;51.498;11.966;2023-07-29T15:10:49;21.80;99.90
17956;DHT22;27666;51.498;11.966;2023-07-29T15:13:35;21.80;99.90
17956;DHT22;27666;51.498;11.966;2023-07-29T15:16:23;22.00;99.90
17956;DHT22;27666;51.498;11.966;2023-07-29T15:19:10;22.10;99.90
17956;DHT22;27666;51.498;11.966;2023-07-29T15:21:59;22.30;99.90
17956;DHT22;27666;51.498;11.966;2023-07-29T15:24:47;22.60;99.90
17956;DHT22;27666;51.498;11.966;2023-07-29T15:27:34;22.80;99.90
17956;DHT22;27666;51.498;11.966;2023-07-29T15:30:21;23.00;99.90
17956;DHT22;27666;51.498;11.966;2023-07-29T15:33:08;23.30;99.90
17956;DHT22;27666;51.498;11.966;2023-07-29T15:38:45;23.70;99.90
17956;DHT22;27666;51.498;11.966;2023-07-29T15:41:33;24.00;99.90
17956;DHT22;27666;51.498;11.966;2023-07-29T15:44:20;24.10;99.90
17956;DHT22;27666;51.498;11.966;2023-07-29T15:47:06;24.20;99.90
17956;DHT22;27666;51.498;11.966;2023-07-29T15:49:53;24.40;99.90
17956;DHT22;27666;51.498;11.966;2023-07-29T15:52:40;24.30;99.90
17956;DHT22;27666;51.498;11.966;2023-07-29T15:55:28;24.20;99.90
17956;DHT22;27666;51.498;11.966;2023-07-29T15:58:16;24.20;99.90
17956;DHT22;27666;51.498;11.966;2023-07-29T16:01:02;24.20;99.90
17956;DHT22;27666;51.498;11.966;2023-07-29T16:03:49;24.20;99.90
17956;DHT22;27666;51.498;11.966;2023-07-29T16:06:36;24.20;99.90
17956;DHT22;27666;51.498;11.966;2023-07-29T16:09:24;24.20;99.90
17956;DHT22;27666;51.498;11.966;2023-07-29T16:12:12;24.20;99.90
17956;DHT22;27666;51.498;11.966;2023-07-29T16:15:00;24.30;99.90
17956;DHT22;27666;51.498;11.966;2023-07-29T16:17:47;24.40;99.90
17956;DHT22;27666;51.498;11.966;2023-07-29T16:20:38;24.40;99.90
17956;DHT22;27666;51.498;11.966;2023-07-29T16:23:25;24.50;99.90
17956;DHT22;27666;51.498;11.966;2023-07-29T16:26:11;24.50;99.90
17956;DHT22;27666;51.498;11.966;2023-07-29T16:28:58;24.50;99.90
17956;DHT22;27666;51.498;11.966;2023-07-29T16:31:46;24.60;99.90
17956;DHT22;27666;51.498;11.966;2023-07-29T16:34:38;24.70;99.90
17956;DHT22;27666;51.498;11.966;2023-07-29T16:37:25;24.60;99.90
17956;DHT22;27666;51.498;11.966;2023-07-29T16:40:15;24.60;99.90
17956;DHT22;27666;51.498;11.966;2023-07-29T16:43:01;24.50;99.90
17956;DHT22;27666;51.498;11.966;2023-07-29T16:45:48;24.30;99.90
17956;DHT22;27666;51.498;11.966;2023-07-29T16:48:37;24.00;99.90
17956;DHT22;27666;51.498;11.966;2023-07-29T16:51:23;23.90;99.90
17956;DHT22;27666;51.498;11.966;2023-07-29T16:54:10;23.70;99.90
17956;DHT22;27666;51.498;11.966;2023-07-29T16:56:56;23.60;99.90
17956;DHT22;27666;51.498;11.966;2023-07-29T16:59:43;23.40;99.90
17956;DHT22;27666;51.498;11.966;2023-07-29T17:02:30;23.20;99.90
17956;DHT22;27666;51.498;11.966;2023-07-29T17:05:18;23.10;99.90
17956;DHT22;27666;51.498;11.966;2023-07-29T17:08:05;23.00;99.90
17956;DHT22;27666;51.498;11.966;2023-07-29T17:10:52;22.90;99.90
17956;DHT22;27666;51.498;11.966;2023-07-29T17:13:38;22.90;99.90
17956;DHT22;27666;51.498;11.966;2023-07-29T17:16:25;22.90;99.90
17956;DHT22;27666;51.498;11.966;2023-07-29T17:19:12;22.90;99.90
17956;DHT22;27666;51.498;11.966;2023-07-29T17:21:59;22.90;99.90
17956;DHT22;27666;51.498;11.966;2023-07-29T17:24:46;22.90;99.90
17956;DHT22;27666;51.498;11.966;2023-07-29T17:27:33;23.10;99.90
17956;DHT22;27666;51.498;11.966;2023-07-29T17:30:19;23.10;99.90
17956;DHT22;27666;51.498;11.966;2023-07-29T17:33:06;23.10;99.90
17956;DHT22;27666;51.498;11.966;2023-07-29T17:35:53;23.20;99.90
17956;DHT22;27666;51.498;11.966;2023-07-29T17:38:41;23.40;99.90
17956;DHT22;27666;51.498;11.966;2023-07-29T17:41:28;23.70;99.90
17956;DHT22;27666;51.498;11.966;2023-07-29T17:44:15;24.10;99.90
17956;DHT22;27666;51.498;11.966;2023-07-29T17:52:37;24.50;99.90
17956;DHT22;27666;51.498;11.966;2023-07-29T17:55:25;24.60;99.90
17956;DHT22;27666;51.498;11.966;2023-07-29T17:58:12;24.30;99.90
17956;DHT22;27666;51.498;11.966;2023-07-29T18:00:59;24.20;99.90
17956;DHT22;27666;51.498;11.966;2023-07-29T18:03:46;24.10;99.90
17956;DHT22;27666;51.498;11.966;2023-07-29T18:06:33;23.90;99.90
17956;DHT22;27666;51.498;11.966;2023-07-29T18:09:20;23.70;99.90
17956;DHT22;27666;51.498;11.966;2023-07-29T18:12:08;23.60;99.90
17956;DHT22;27666;51.498;11.966;2023-07-29T18:14:55;23.50;99.90
17956;DHT22;27666;51.498;11.966;2023-07-29T18:17:42;23.40;99.90
17956;DHT22;27666;51.498;11.966;2023-07-29T18:20:29;23.40;99.90
17956;DHT22;27666;51.498;11.966;2023-07-29T18:23:16;23.20;99.90
17956;DHT22;27666;51.498;11.966;2023-07-29T18:26:02;23.10;99.90
17956;DHT22;27666;51.498;11.966;2023-07-29T18:28:50;23.00;99.90
17956;DHT22;27666;51.498;11.966;2023-07-29T18:31:36;22.90;99.90
17956;DHT22;27666;51.498;11.966;2023-07-29T18:34:23;22.90;99.90
17956;DHT22;27666;51.498;11.966;2023-07-29T18:37:10;22.80;99.90
17956;DHT22;27666;51.498;11.966;2023-07-29T18:39:56;22.70;99.90
17956;DHT22;27666;51.498;11.966;2023-07-29T18:42:43;22.60;99.90
17956;DHT22;27666;51.498;11.966;2023-07-29T18:45:32;22.40;99.90
17956;DHT22;27666;51.498;11.966;2023-07-29T18:48:18;22.40;99.90
17956;DHT22;27666;51.498;11.966;2023-07-29T18:51:05;22.40;99.90
17956;DHT22;27666;51.498;11.966;2023-07-29T18:53:53;22.40;99.90
17956;DHT22;27666;51.498;11.966;2023-07-29T18:56:40;22.40;99.90
17956;DHT22;27666;51.498;11.966;2023-07-29T19:02:15;22.10;99.90
17956;DHT22;27666;51.498;11.966;2023-07-29T19:05:03;22.00;99.90
17956;DHT22;27666;51.498;11.966;2023-07-29T19:07:50;21.90;99.90
17956;DHT22;27666;51.498;11.966;2023-07-29T19:44:16;21.20;99.90
17956;DHT22;27666;51.498;11.966;2023-07-29T19:47:08;21.30;99.90
17956;DHT22;27666;51.498;11.966;2023-07-29T19:49:55;21.10;99.90
17956;DHT22;27666;51.498;11.966;2023-07-29T19:52:43;21.10;99.90
17956;DHT22;27666;51.498;11.966;2023-07-29T19:55:29;21.00;99.90
17956;DHT22;27666;51.498;11.966;2023-07-29T19:58:16;20.90;99.90
17956;DHT22;27666;51.498;11.966;2023-07-29T20:01:03;20.90;99.90
17956;DHT22;27666;51.498;11.966;2023-07-29T20:03:55;20.90;99.90
17956;DHT22;27666;51.498;11.966;2023-07-29T20:06:41;20.90;99.90
17956;DHT22;27666;51.498;11.966;2023-07-29T20:09:29;20.90;99.90
17956;DHT22;27666;51.498;11.966;2023-07-29T20:12:16;20.90;99.90
17956;DHT22;27666;51.498;11.966;2023-07-29T20:15:03;20.90;99.90
17956;DHT22;27666;51.498;11.966;2023-07-29T20:17:50;20.90;99.90
17956;DHT22;27666;51.498;11.966;2023-07-29T20:20:37;20.90;99.90
17956;DHT22;27666;51.498;11.966;2023-07-29T20:23:23;20.90;99.90
17956;DHT22;27666;51.498;11.966;2023-07-29T20:26:11;20.90;99.90
17956;DHT22;27666;51.498;11.966;2023-07-29T20:28:57;20.90;99.90
17956;DHT22;27666;51.498;11.966;2023-07-29T20:31:44;21.00;99.90
17956;DHT22;27666;51.498;11.966;2023-07-29T20:34:30;21.00;99.90
17956;DHT22;27666;51.498;11.966;2023-07-29T20:37:17;21.20;99.90
17956;DHT22;27666;51.498;11.966;2023-07-29T20:40:04;21.10;99.90
17956;DHT22;27666;51.498;11.966;2023-07-29T20:42:53;21.10;99.90
17956;DHT22;27666;51.498;11.966;2023-07-29T20:45:39;21.10;99.90
17956;DHT22;27666;51.498;11.966;2023-07-29T20:48:26;21.00;99.90
17956;DHT22;27666;51.498;11.966;2023-07-29T20:51:15;20.90;99.90
17956;DHT22;27666;51.498;11.966;2023-07-29T20:54:02;20.80;99.90
17956;DHT22;27666;51.498;11.966;2023-07-29T20:56:49;20.70;99.90
17956;DHT22;27666;51.498;11.966;2023-07-29T20:59:36;20.60;99.90
17956;DHT22;27666;51.498;11.966;2023-07-29T21:02:23;20.50;99.90
17956;DHT22;27666;51.498;11.966;2023-07-29T21:05:09;20.40;99.90
17956;DHT22;27666;51.498;11.966;2023-07-29T21:07:56;20.40;99.90
17956;DHT22;27666;51.498;11.966;2023-07-29T21:10:43;20.30;99.90
17956;DHT22;27666;51.498;11.966;2023-07-29T21:13:34;20.20;99.90
17956;DHT22;27666;51.498;11.966;2023-07-29T21:16:22;20.30;99.90
17956;DHT22;27666;51.498;11.966;2023-07-29T21:19:09;20.20;99.90
17956;DHT22;27666;51.498;11.966;2023-07-29T21:21:55;20.10;99.90
17956;DHT22;27666;51.498;11.966;2023-07-29T21:24:42;20.10;99.90
17956;DHT22;27666;51.498;11.966;2023-07-29T21:27:28;20.10;99.90
17956;DHT22;27666;51.498;11.966;2023-07-29T21:30:15;20.10;99.90
17956;DHT22;27666;51.498;11.966;2023-07-29T21:33:03;20.00;99.90
17956;DHT22;27666;51.498;11.966;2023-07-29T21:35:49;19.90;99.90
17956;DHT22;27666;51.498;11.966;2023-07-29T21:38:36;19.90;99.90
17956;DHT22;27666;51.498;11.966;2023-07-29T21:41:23;19.80;99.90
17956;DHT22;27666;51.498;11.966;2023-07-29T21:44:10;19.80;99.90
